Meteo Giornale » Osservazioni meteo Marocco » Agadir Al Massira
ore: 22:30 - Osservazioni Meteo Agadir Al Massira
Lat. 30° 20' N Lon. 9° 24' W Alt. 74 metri s.l.m.
23 °C
Sereno
Temp. 24 Ore
20 °C
33 °C
Ovest/Sud-Ovest
7.4 Km/h
Dew point 17 °C
Umidità 68 %
Visibilità 8 Km
Il sole sorge alle ore 07:14
Il sole tramonta alle ore 20:00
| Data e Ora | Cielo e Fenomeni | T °C | DP °C | Um. % | Pres. hPa | Vis. km | Vento km/h | |
|---|---|---|---|---|---|---|---|---|
| Oggi h: 22:30 | Sereno | 23 | 17 | 68 | 1012 | 8 | O/SO 7.4 | |
| Oggi h: 22:00 | Sereno | 24 | 18 | 69 | 1012 | 8 | O/SO 11.1 | |
| Oggi h: 21:30 | Sereno | 24 | 18 | 69 | 1011 | 8 | O 7.4 | |
| Oggi h: 21:00 | Sereno | 24 | 17 | 64 | 1011 | 8 | O 9.3 | |
| Oggi h: 20:30 | Sereno | 25 | 18 | 65 | 1011 | 8 | O 7.4 | |
| Oggi h: 20:00 | Sereno | 26 | 18 | 61 | 1010 | 8 | SO 11.1 | |
| Oggi h: 19:30 | Sereno | 27 | 18 | 57 | 1010 | 8 | O/SO 13 | |
| Oggi h: 19:00 | Sereno | 28 | 18 | 54 | 1010 | 8 | SO 16.7 | |
| Oggi h: 18:30 | Sereno | 30 | 18 | 48 | 1010 | 8 | SO 16.7 | |
| Oggi h: 18:00 | Sereno | 30 | 18 | 48 | 1010 | 8 | SO 16.7 | |
| Oggi h: 17:30 | Sereno | 31 | 18 | 45 | 1010 | 8 | SO 16.7 | |
| Oggi h: 17:00 | Sereno | 31 | 19 | 48 | 1010 | 8 | O/SO 14.8 | |
| Oggi h: 16:30 | Sereno | 31 | 19 | 48 | 1011 | 8 | O/SO 18.5 | |
| Oggi h: 16:00 | Sereno | 31 | 19 | 48 | 1011 | 8 | O/SO 18.5 | |
| Oggi h: 15:30 | Sereno | 31 | 19 | 48 | 1011 | 8 | O 16.7 | |
| Oggi h: 15:00 | Sereno | 32 | 19 | 46 | 1012 | 8 | O 18.5 | |
| Oggi h: 14:30 | Sereno | 31 | 19 | 48 | 1012 | 8 | SO 22.2 | |
| Oggi h: 14:00 | Sereno | 33 | 19 | 43 | 1012 | 8 | O 13 | |
| Oggi h: 13:30 | Sereno | 32 | 19 | 46 | 1012 | 8 | E 7.4 | |
| Oggi h: 13:00 | Sereno | 32 | 19 | 46 | 1013 | 8 | N 5.5 | |
| Oggi h: 12:30 | Sereno | 31 | 19 | 48 | 1013 | 8 | S 9.3 | |
| Oggi h: 12:00 | Sereno | 28 | 19 | 58 | 1012 | 8 | N 18.5 | |
| Oggi h: 11:30 | Sereno | 25 | 19 | 69 | 1013 | 8 | N 11.1 | |
| Oggi h: 11:00 | Sereno | 24 | 19 | 73 | 1013 | 8 | N/NE 22.2 | |
| Oggi h: 10:30 | Nuvoloso | 23 | 19 | 78 | 1013 | 8 | N/NO 14.8 | |
| Oggi h: 10:00 | Molto Nuvoloso | 22 | 19 | 83 | 1012 | 8 | NE 22.2 | |
| Oggi h: 09:30 | Molto Nuvoloso | 21 | 19 | 88 | 1013 | 8 | NE 13 | |
| Oggi h: 09:00 | Molto Nuvoloso | 21 | 19 | 88 | 1013 | 6 | NE 13 | |
| Oggi h: 08:30 | Coperto | 20 | 19 | 93 | 1013 | 6 | S/SE 18.5 | |
| Oggi h: 08:00 | Coperto | 20 | 20 | 100 | 1014 | 6 | SE 14.8 | |
| Oggi h: 07:30 | Coperto | 20 | 19 | 93 | 1014 | 6 | O 13 | |
| Oggi h: 07:00 | Molto Nuvoloso | 20 | 19 | 93 | 1013 | 6 | SO 14.8 | |
| Oggi h: 06:30 | Nuvoloso | 20 | 19 | 93 | 1012 | 7 | S 16.7 | |
| Oggi h: 06:00 | Nuvoloso | 20 | 19 | 93 | 1011 | 7 | S 13 | |
| Oggi h: 05:30 | Nuvoloso | 20 | 19 | 93 | 1012 | 6 | SO 14.8 | |
| Oggi h: 05:00 | Molto Nuvoloso | 20 | 19 | 93 | 1012 | 6 | O 14.8 | |
| Oggi h: 04:30 | Sereno | 21 | 19 | 88 | 1012 | 10 | O/SO 18.5 | |
| Oggi h: 04:00 | Nuvoloso | 21 | 19 | 88 | 1012 | 10 | O 9.3 | |
| Oggi h: 03:30 | Nuvoloso | 22 | 19 | 83 | 1012 | 10 | O/NO 11.1 | |
| Oggi h: 03:00 | Nuvoloso | 22 | 18 | 78 | 1012 | 10 | N 5.5 | |
| Oggi h: 02:30 | Nuvoloso | 22 | 18 | 78 | 1012 | 10 | N 5.5 | |
| Oggi h: 01:30 | Nuvoloso | 22 | 18 | 78 | 1013 | 10 | N 0 | |
| Oggi h: 01:00 | Nuvoloso | 22 | 18 | 78 | 1013 | 10 | N/NO 9.3 | |
| Oggi h: 00:30 | Nuvoloso | 22 | 18 | 78 | 1014 | 10 | N 5.5 | |
| Oggi h: 00:00 | Nuvoloso | 22 | 18 | 78 | 1014 | 10 | E 11.1 | |



